createdAt,value
2018-02-26T00:00:30.802Z,0
2018-02-26T00:01:11.245Z,0
2018-02-26T00:01:51.593Z,0
2018-02-26T00:02:32.000Z,0
2018-02-26T00:03:12.362Z,0
2018-02-26T00:03:53.202Z,0
2018-02-26T00:04:33.788Z,0
2018-02-26T00:05:14.163Z,0
2018-02-26T00:05:54.585Z,0
2018-02-26T00:06:35.009Z,0
2018-02-26T00:07:15.395Z,0
2018-02-26T00:07:55.780Z,0
2018-02-26T00:08:36.165Z,0
2018-02-26T00:09:16.581Z,0
2018-02-26T00:09:57.147Z,0
2018-02-26T00:10:37.404Z,0
2018-02-26T00:12:58.332Z,0
2018-02-26T00:13:39.006Z,0
2018-02-26T00:14:19.389Z,0
2018-02-26T00:18:36.100Z,0
2018-02-26T00:23:02.309Z,0
2018-02-26T00:23:46.446Z,0
2018-02-26T00:24:26.877Z,0
2018-02-26T00:25:07.252Z,0
2018-02-26T00:25:47.646Z,0
2018-02-26T00:26:28.035Z,0
2018-02-26T00:27:08.473Z,0
2018-02-26T00:27:48.878Z,0
2018-02-26T00:28:29.353Z,0
2018-02-26T00:29:09.632Z,0
2018-02-26T00:29:50.047Z,0
2018-02-26T00:30:30.400Z,0
2018-02-26T00:31:10.808Z,0
2018-02-26T00:31:51.366Z,0
2018-02-26T00:32:31.710Z,0
2018-02-26T00:33:12.056Z,0
2018-02-26T00:33:52.467Z,0
2018-02-26T00:34:32.880Z,0
2018-02-26T00:35:13.246Z,0
2018-02-26T00:35:53.621Z,0
2018-02-26T00:36:34.064Z,0
2018-02-26T00:37:14.472Z,0
2018-02-26T00:37:54.885Z,0
2018-02-26T00:38:35.272Z,0
2018-02-26T00:41:10.445Z,0
2018-02-26T00:43:49.430Z,0
2018-02-26T00:44:29.050Z,0
2018-02-26T00:45:09.389Z,0
2018-02-26T00:45:49.783Z,0
2018-02-26T00:46:30.307Z,0
2018-02-26T00:47:10.794Z,0
2018-02-26T00:47:51.121Z,0
2018-02-26T00:48:31.574Z,0
2018-02-26T00:49:11.974Z,0
2018-02-26T00:49:52.369Z,0
2018-02-26T00:50:32.813Z,0
2018-02-26T00:51:13.411Z,0
2018-02-26T00:51:53.861Z,0
2018-02-26T00:52:34.317Z,0
2018-02-26T00:53:14.663Z,0
2018-02-26T00:53:55.118Z,0
2018-02-26T00:54:35.468Z,0
2018-02-26T00:55:15.991Z,0
2018-02-26T00:55:56.255Z,0
2018-02-26T00:56:36.681Z,0
2018-02-26T00:57:17.117Z,0
2018-02-26T00:57:57.444Z,0
2018-02-26T00:58:37.880Z,0
2018-02-26T00:59:18.262Z,0
2018-02-26T00:59:58.667Z,0
2018-02-26T01:00:39.211Z,0
2018-02-26T01:01:19.558Z,0
2018-02-26T01:01:59.920Z,0
2018-02-26T01:02:40.431Z,0
2018-02-26T01:03:20.814Z,0
2018-02-26T01:04:01.205Z,0
2018-02-26T01:06:23.244Z,0
2018-02-26T01:07:14.674Z,0
2018-02-26T01:08:04.150Z,0
2018-02-26T01:08:47.772Z,0
2018-02-26T01:11:36.367Z,0
2018-02-26T01:12:24.441Z,0
2018-02-26T01:13:09.403Z,0
2018-02-26T01:13:49.554Z,0
2018-02-26T01:14:29.890Z,0
2018-02-26T01:15:10.320Z,0
2018-02-26T01:15:50.728Z,0
2018-02-26T01:16:31.136Z,0
2018-02-26T01:17:11.515Z,0
2018-02-26T01:17:51.913Z,0
2018-02-26T01:20:15.855Z,0
2018-02-26T01:20:56.712Z,0
2018-02-26T01:21:37.110Z,0
2018-02-26T01:22:17.562Z,0
2018-02-26T01:22:57.898Z,0
2018-02-26T01:23:38.291Z,0
2018-02-26T01:24:18.711Z,0
2018-02-26T01:24:59.130Z,0
2018-02-26T01:25:39.520Z,0
2018-02-26T01:26:19.963Z,0
2018-02-26T01:27:00.390Z,0
2018-02-26T01:27:40.733Z,0
2018-02-26T01:28:21.119Z,0
2018-02-26T01:29:01.524Z,0
2018-02-26T01:29:41.993Z,0
2018-02-26T01:30:22.350Z,0
2018-02-26T01:31:02.778Z,0
2018-02-26T01:31:43.158Z,0
2018-02-26T01:32:23.692Z,0
2018-02-26T01:36:06.717Z,0
2018-02-26T01:36:58.110Z,0
2018-02-26T01:39:51.270Z,0
2018-02-26T01:40:40.303Z,0
2018-02-26T01:41:29.533Z,0
2018-02-26T01:42:19.111Z,0
2018-02-26T01:43:06.778Z,0
2018-02-26T01:43:57.147Z,0
2018-02-26T01:44:57.084Z,0
2018-02-26T01:45:43.324Z,0
2018-02-26T01:46:35.452Z,0
2018-02-26T02:01:45.312Z,0
2018-02-26T02:04:29.538Z,0
2018-02-26T02:05:19.639Z,0
2018-02-26T02:06:09.628Z,0
2018-02-26T02:07:01.210Z,0
2018-02-26T02:07:49.724Z,0
2018-02-26T02:08:41.441Z,0
2018-02-26T02:09:29.588Z,0
2018-02-26T02:10:20.252Z,0
2018-02-26T02:11:09.753Z,0
2018-02-26T02:12:00.648Z,0
2018-02-26T02:22:49.063Z,0
2018-02-26T02:30:11.368Z,0
2018-02-26T02:31:00.821Z,0
2018-02-26T02:31:48.965Z,0
2018-02-26T02:34:22.427Z,0
2018-02-26T02:38:13.898Z,0
2018-02-26T02:38:58.170Z,0
2018-02-26T02:43:03.198Z,0
2018-02-26T02:44:45.968Z,0
2018-02-26T02:45:35.206Z,0
2018-02-26T02:47:15.489Z,0
2018-02-26T02:48:05.604Z,0
2018-02-26T02:57:42.246Z,0
2018-02-26T02:58:32.112Z,0
2018-02-26T02:59:23.408Z,0
2018-02-26T03:00:11.881Z,0
2018-02-26T03:01:02.477Z,0
2018-02-26T03:09:40.368Z,0
2018-02-26T03:10:26.880Z,0
2018-02-26T03:15:04.763Z,0
2018-02-26T03:18:02.917Z,0
2018-02-26T03:43:29.625Z,0
2018-02-26T03:50:20.434Z,0
2018-02-26T03:52:53.675Z,0
2018-02-26T03:58:51.550Z,0
2018-02-26T04:01:53.226Z,0
2018-02-26T05:08:53.346Z,0
2018-02-26T05:13:32.180Z,0
2018-02-26T05:14:12.586Z,0
2018-02-26T05:14:53.583Z,0
2018-02-26T05:15:34.609Z,0
2018-02-26T05:16:15.513Z,0
2018-02-26T05:16:56.794Z,0
2018-02-26T05:17:37.311Z,0
2018-02-26T05:18:17.585Z,0
2018-02-26T05:18:58.248Z,0
2018-02-26T05:19:38.546Z,0
2018-02-26T05:20:19.237Z,0
2018-02-26T05:20:59.684Z,0
2018-02-26T05:21:40.189Z,0
2018-02-26T05:22:20.900Z,0
2018-02-26T05:23:02.772Z,0
2018-02-26T05:23:43.793Z,0
2018-02-26T05:24:24.482Z,0
2018-02-26T05:25:05.731Z,0
2018-02-26T05:25:46.097Z,0
2018-02-26T05:26:32.159Z,0
2018-02-26T05:27:12.087Z,0
2018-02-26T05:27:52.032Z,0
2018-02-26T05:28:33.162Z,0
2018-02-26T05:29:14.738Z,0
2018-02-26T05:29:57.863Z,0
2018-02-26T05:30:38.133Z,0
2018-02-26T05:32:55.955Z,0
2018-02-26T05:33:36.332Z,0
2018-02-26T05:34:16.800Z,0
2018-02-26T05:34:57.398Z,0
2018-02-26T05:35:37.855Z,0
2018-02-26T05:36:18.211Z,0
2018-02-26T05:38:47.324Z,0
2018-02-26T05:39:27.737Z,0
2018-02-26T05:40:08.167Z,0
2018-02-26T05:40:48.534Z,0
2018-02-26T05:41:28.897Z,0
2018-02-26T05:42:09.298Z,0
2018-02-26T05:42:49.788Z,0
2018-02-26T05:43:30.207Z,0
2018-02-26T05:45:59.329Z,0
2018-02-26T05:46:39.738Z,0
2018-02-26T05:47:20.138Z,0
2018-02-26T05:48:00.551Z,0
2018-02-26T05:48:55.587Z,0
2018-02-26T05:49:35.958Z,0
2018-02-26T05:50:16.336Z,0
2018-02-26T05:50:56.754Z,0
2018-02-26T05:57:59.754Z,0
2018-02-26T06:00:13.142Z,0
2018-02-26T06:00:53.526Z,0
2018-02-26T06:03:06.753Z,0
2018-02-26T06:05:35.866Z,0
2018-02-26T06:06:16.266Z,0
2018-02-26T06:08:44.455Z,0
2018-02-26T06:09:24.831Z,0
2018-02-26T06:10:05.339Z,0
2018-02-26T06:10:47.549Z,0
2018-02-26T06:27:28.748Z,0
2018-02-26T06:28:24.977Z,0
2018-02-26T06:29:05.308Z,0
2018-02-26T06:29:46.608Z,0
2018-02-26T06:30:26.983Z,0
2018-02-26T06:31:09.028Z,0
2018-02-26T06:31:50.351Z,0
2018-02-26T06:32:32.470Z,0
2018-02-26T06:34:58.230Z,0
2018-02-26T06:39:52.491Z,5
2018-02-26T06:40:33.539Z,5
2018-02-26T06:41:15.832Z,10
2018-02-26T06:41:56.524Z,10
2018-02-26T06:44:30.402Z,25
2018-02-26T06:46:39.440Z,30
2018-02-26T06:47:19.845Z,30
2018-02-26T06:49:49.461Z,25
2018-02-26T06:50:30.373Z,25
2018-02-26T06:55:54.256Z,50
2018-02-26T07:00:04.795Z,60
2018-02-26T07:00:47.169Z,50
2018-02-26T07:01:26.782Z,50
2018-02-26T07:02:22.655Z,45
2018-02-26T07:03:18.768Z,30
2018-02-26T07:04:08.716Z,15
2018-02-26T07:06:38.024Z,15
2018-02-26T07:07:17.891Z,15
2018-02-26T07:07:59.891Z,15
2018-02-26T07:08:40.877Z,15
2018-02-26T07:10:54.898Z,20
2018-02-26T07:13:25.086Z,20
2018-02-26T07:14:06.155Z,20
2018-02-26T07:16:34.975Z,20
2018-02-26T07:18:48.637Z,20
2018-02-26T07:19:31.340Z,20
2018-02-26T07:20:11.004Z,20
2018-02-26T07:24:29.494Z,20
2018-02-26T07:25:10.811Z,20
2018-02-26T07:29:26.173Z,10
2018-02-26T07:30:08.002Z,10
2018-02-26T07:32:37.905Z,10
2018-02-26T07:33:18.714Z,10
2018-02-26T07:34:00.780Z,10
2018-02-26T07:34:41.094Z,10
2018-02-26T07:35:21.854Z,10
2018-02-26T07:37:52.732Z,15
2018-02-26T07:40:14.681Z,20
2018-02-26T07:42:29.165Z,20
2018-02-26T07:43:09.537Z,20
2018-02-26T07:43:50.917Z,20
2018-02-26T07:47:35.529Z,30
2018-02-26T07:49:48.121Z,40
2018-02-26T07:52:03.541Z,40
2018-02-26T07:54:16.930Z,45
2018-02-26T07:56:46.942Z,45
2018-02-26T07:57:27.809Z,50
2018-02-26T07:58:08.552Z,55
2018-02-26T07:58:49.703Z,60
2018-02-26T07:59:30.925Z,70
2018-02-26T08:00:12.254Z,75
2018-02-26T08:00:53.451Z,75
2018-02-26T08:01:33.212Z,75
2018-02-26T08:02:14.669Z,65
2018-02-26T08:03:08.888Z,75
2018-02-26T08:05:46.359Z,85
2018-02-26T08:06:27.544Z,80
2018-02-26T08:09:11.508Z,75
2018-02-26T08:09:52.701Z,60
2018-02-26T08:12:07.054Z,75
2018-02-26T08:12:48.444Z,75
2018-02-26T08:13:29.147Z,75
2018-02-26T08:14:10.616Z,75
2018-02-26T08:14:51.442Z,75
2018-02-26T08:18:09.158Z,70
2018-02-26T08:19:20.509Z,70
2018-02-26T08:20:00.709Z,70
2018-02-26T08:23:58.000Z,70
2018-02-26T09:01:55.370Z,50
2018-02-26T09:09:11.346Z,45
2018-02-26T09:18:24.872Z,40
2018-02-26T09:19:21.033Z,40
2018-02-26T09:20:02.066Z,40
2018-02-26T09:20:43.030Z,40
2018-02-26T09:21:38.057Z,45
2018-02-26T09:27:36.084Z,45
2018-02-26T09:31:37.869Z,50
2018-02-26T09:32:18.308Z,60
2018-02-26T09:33:01.749Z,80
2018-02-26T09:33:42.140Z,65
2018-02-26T09:39:12.602Z,80
2018-02-26T09:39:53.777Z,80
2018-02-26T09:40:35.129Z,80
2018-02-26T09:46:16.226Z,70
2018-02-26T09:48:32.910Z,65
2018-02-26T09:49:13.375Z,50
2018-02-26T09:51:49.642Z,65
2018-02-26T09:52:30.199Z,55
2018-02-26T09:53:14.047Z,65
2018-02-26T09:53:58.483Z,70
2018-02-26T09:54:41.067Z,65
2018-02-26T09:55:22.733Z,70
2018-02-26T09:56:05.010Z,65
2018-02-26T09:56:45.923Z,65
2018-02-26T10:05:54.677Z,80
2018-02-26T10:46:00.809Z,40
2018-02-26T10:48:14.270Z,35
2018-02-26T11:04:45.163Z,45
2018-02-26T11:05:25.005Z,45
2018-02-26T11:06:05.762Z,50
2018-02-26T11:06:46.225Z,45
2018-02-26T11:08:36.070Z,45
2018-02-26T11:09:16.846Z,45
2018-02-26T11:09:58.518Z,45
2018-02-26T11:10:39.005Z,55
2018-02-26T11:11:19.476Z,55
2018-02-26T11:12:00.057Z,50
2018-02-26T11:12:40.463Z,45
2018-02-26T11:25:28.904Z,60
2018-02-26T11:26:09.196Z,60
2018-02-26T11:26:49.876Z,60
2018-02-26T11:27:30.438Z,65
2018-02-26T11:28:11.228Z,70
2018-02-26T11:28:51.741Z,70
2018-02-26T11:29:33.498Z,60
2018-02-26T11:30:15.478Z,55
2018-02-26T11:30:56.368Z,75
2018-02-26T11:31:37.338Z,75
2018-02-26T11:32:18.531Z,75
2018-02-26T11:32:59.953Z,75
2018-02-26T11:33:40.525Z,75
2018-02-26T11:34:21.908Z,80
2018-02-26T11:35:02.432Z,75
2018-02-26T11:37:52.183Z,70
2018-02-26T11:38:32.992Z,70
2018-02-26T11:39:13.450Z,70
2018-02-26T11:39:55.069Z,50
2018-02-26T11:40:34.878Z,50
2018-02-26T11:41:16.519Z,60
2018-02-26T11:41:58.051Z,45
2018-02-26T11:42:39.020Z,45
2018-02-26T11:43:20.885Z,40
2018-02-26T11:44:02.606Z,40
2018-02-26T11:44:43.381Z,45
2018-02-26T11:45:24.163Z,45
2018-02-26T11:46:04.693Z,45
2018-02-26T11:46:46.576Z,45
2018-02-26T11:47:28.350Z,50
2018-02-26T11:48:09.088Z,70
2018-02-26T11:48:50.768Z,75
2018-02-26T11:49:32.459Z,75
2018-02-26T11:50:12.973Z,75
2018-02-26T11:50:53.464Z,70
2018-02-26T11:51:34.452Z,70
2018-02-26T11:52:16.075Z,70
2018-02-26T11:52:56.309Z,60
2018-02-26T11:53:37.178Z,60
2018-02-26T11:54:18.660Z,60
2018-02-26T11:54:58.926Z,40
2018-02-26T11:55:40.019Z,40
2018-02-26T11:56:21.232Z,40
2018-02-26T11:57:01.951Z,40
2018-02-26T11:57:42.403Z,40
2018-02-26T11:58:24.581Z,40
2018-02-26T11:59:05.275Z,35
2018-02-26T11:59:46.687Z,35
2018-02-26T12:00:27.285Z,35
2018-02-26T12:01:08.469Z,35
2018-02-26T12:01:48.734Z,35
2018-02-26T12:02:30.161Z,35
2018-02-26T12:03:11.277Z,35
2018-02-26T12:03:52.707Z,35
2018-02-26T12:04:34.438Z,30
2018-02-26T12:05:14.438Z,30
2018-02-26T12:05:56.898Z,30
2018-02-26T12:06:37.704Z,30
2018-02-26T12:07:18.270Z,30
2018-02-26T12:07:59.885Z,30
2018-02-26T12:08:40.600Z,30
2018-02-26T12:09:22.063Z,30
2018-02-26T12:10:03.942Z,30
2018-02-26T12:10:45.031Z,30
2018-02-26T12:11:26.191Z,30
2018-02-26T12:12:07.662Z,30
2018-02-26T12:12:48.917Z,30
2018-02-26T12:13:30.269Z,30
2018-02-26T12:14:11.370Z,30
2018-02-26T12:14:52.303Z,25
2018-02-26T12:15:33.222Z,25
2018-02-26T12:16:14.530Z,25
2018-02-26T12:16:55.633Z,30
2018-02-26T12:17:36.070Z,30
2018-02-26T12:18:16.834Z,30
2018-02-26T12:18:57.611Z,30
2018-02-26T12:19:38.188Z,30
2018-02-26T12:20:18.960Z,30
2018-02-26T12:21:00.874Z,30
2018-02-26T12:21:41.429Z,35
2018-02-26T12:22:22.262Z,35
2018-02-26T12:23:05.423Z,35
2018-02-26T12:26:54.577Z,40
2018-02-26T12:27:34.867Z,40
2018-02-26T12:28:16.053Z,40
2018-02-26T12:28:58.900Z,35
2018-02-26T12:29:40.422Z,35
2018-02-26T12:32:33.819Z,40
2018-02-26T12:33:18.454Z,40
2018-02-26T12:34:02.316Z,40
2018-02-26T12:34:43.770Z,40
2018-02-26T12:35:25.921Z,40
2018-02-26T12:36:06.477Z,40
2018-02-26T12:36:48.095Z,40
2018-02-26T12:37:31.630Z,40
2018-02-26T12:38:11.411Z,40
2018-02-26T12:38:53.110Z,40
2018-02-26T12:39:33.533Z,40
2018-02-26T12:40:15.090Z,40
2018-02-26T12:40:56.877Z,40
2018-02-26T12:41:40.339Z,40
2018-02-26T12:42:22.700Z,40
2018-02-26T12:43:02.786Z,40
2018-02-26T12:43:43.780Z,40
2018-02-26T12:44:25.336Z,40
2018-02-26T12:45:05.936Z,40
2018-02-26T12:45:46.906Z,40
2018-02-26T12:46:27.883Z,40
2018-02-26T12:47:08.967Z,35
2018-02-26T12:47:49.479Z,35
2018-02-26T12:48:30.409Z,40
2018-02-26T12:49:10.839Z,40
2018-02-26T12:49:52.293Z,40
2018-02-26T12:50:33.238Z,40
2018-02-26T12:51:14.658Z,40
2018-02-26T12:51:55.384Z,40
2018-02-26T12:52:36.977Z,35
2018-02-26T12:53:17.799Z,35
2018-02-26T12:53:59.160Z,40
2018-02-26T12:54:39.844Z,35
2018-02-26T12:55:20.837Z,35
2018-02-26T12:56:02.508Z,35
2018-02-26T12:56:44.303Z,35
2018-02-26T12:57:25.119Z,35
2018-02-26T12:58:05.389Z,35
2018-02-26T12:58:46.453Z,35
2018-02-26T12:59:27.146Z,35
2018-02-26T13:00:07.745Z,35
2018-02-26T13:00:49.687Z,35
2018-02-26T13:01:31.205Z,35
2018-02-26T13:02:12.362Z,35
2018-02-26T13:02:54.091Z,35
2018-02-26T13:03:37.508Z,35
2018-02-26T13:04:19.186Z,35
2018-02-26T13:04:59.353Z,35
2018-02-26T13:05:41.535Z,35
2018-02-26T13:06:21.020Z,40
2018-02-26T13:07:02.633Z,40
2018-02-26T13:07:44.133Z,40
2018-02-26T13:08:24.739Z,40
2018-02-26T13:09:07.531Z,45
2018-02-26T13:09:49.915Z,45
2018-02-26T13:10:31.595Z,55
2018-02-26T13:11:14.289Z,45
2018-02-26T13:11:54.525Z,40
2018-02-26T13:12:35.851Z,40
2018-02-26T13:13:16.659Z,40
2018-02-26T13:13:57.689Z,40
2018-02-26T13:14:40.567Z,40
2018-02-26T13:15:21.044Z,40
2018-02-26T13:16:01.934Z,40
2018-02-26T13:16:42.158Z,40
2018-02-26T13:17:23.114Z,40
2018-02-26T13:18:04.693Z,40
2018-02-26T13:18:45.501Z,40
2018-02-26T13:19:26.131Z,40
2018-02-26T13:20:09.327Z,35
2018-02-26T13:20:51.011Z,35
2018-02-26T13:21:31.238Z,35
2018-02-26T13:22:11.629Z,40
2018-02-26T13:22:54.065Z,40
2018-02-26T13:23:36.277Z,30
2018-02-26T13:24:16.754Z,30
2018-02-26T13:24:59.072Z,30
2018-02-26T13:25:39.452Z,30
2018-02-26T13:26:20.807Z,30
2018-02-26T13:27:02.197Z,35
2018-02-26T13:27:42.764Z,35
2018-02-26T13:28:23.246Z,35
2018-02-26T13:29:03.809Z,35
2018-02-26T13:29:44.896Z,35
2018-02-26T13:30:26.590Z,35
2018-02-26T13:31:10.105Z,35
2018-02-26T13:31:50.951Z,35
2018-02-26T13:32:33.436Z,40
2018-02-26T13:33:13.908Z,40
2018-02-26T13:33:55.343Z,40
2018-02-26T13:34:35.931Z,40
2018-02-26T13:35:18.694Z,40
2018-02-26T13:35:59.303Z,40
2018-02-26T13:36:39.957Z,40
2018-02-26T13:37:22.331Z,40
2018-02-26T13:38:02.729Z,40
2018-02-26T13:38:43.242Z,40
2018-02-26T13:39:24.899Z,40
2018-02-26T13:40:06.440Z,40
2018-02-26T13:40:46.789Z,40
2018-02-26T13:41:27.147Z,40
2018-02-26T13:42:12.205Z,40
2018-02-26T13:42:52.751Z,40
2018-02-26T13:43:33.473Z,35
2018-02-26T13:44:14.650Z,30
2018-02-26T13:44:55.766Z,30
2018-02-26T13:49:24.660Z,30
2018-02-26T13:55:32.475Z,30
2018-02-26T13:56:13.536Z,30
2018-02-26T13:56:55.388Z,30
2018-02-26T13:57:38.498Z,30
2018-02-26T13:58:20.674Z,30
2018-02-26T14:00:29.935Z,35
2018-02-26T14:01:11.297Z,35
2018-02-26T14:01:52.358Z,30
2018-02-26T14:02:38.069Z,30
2018-02-26T14:03:19.427Z,30
2018-02-26T14:04:00.320Z,30
2018-02-26T14:04:42.514Z,30
2018-02-26T14:05:23.749Z,30
2018-02-26T14:06:05.027Z,25
2018-02-26T14:06:47.780Z,30
2018-02-26T14:07:28.915Z,25
2018-02-26T14:08:10.635Z,25
2018-02-26T14:08:51.689Z,25
2018-02-26T14:09:34.550Z,25
2018-02-26T14:10:15.152Z,25
2018-02-26T14:10:55.946Z,25
2018-02-26T14:11:37.452Z,25
2018-02-26T14:12:18.263Z,25
2018-02-26T14:12:59.054Z,25
2018-02-26T14:13:39.923Z,25
2018-02-26T14:14:20.900Z,25
2018-02-26T14:15:02.998Z,25
2018-02-26T14:15:46.463Z,25
2018-02-26T14:16:27.789Z,25
2018-02-26T14:17:13.431Z,25
2018-02-26T14:17:58.808Z,25
2018-02-26T14:18:39.503Z,25
2018-02-26T14:19:20.857Z,25
2018-02-26T14:20:03.103Z,25
2018-02-26T14:20:47.390Z,25
2018-02-26T14:21:28.385Z,25
2018-02-26T14:22:09.165Z,25
2018-02-26T14:22:54.620Z,25
2018-02-26T14:23:35.048Z,25
2018-02-26T14:24:16.585Z,30
2018-02-26T14:24:59.189Z,30
2018-02-26T14:25:40.287Z,30
2018-02-26T14:26:20.686Z,30
2018-02-26T14:27:02.923Z,30
2018-02-26T14:27:43.900Z,30
2018-02-26T14:28:24.696Z,30
2018-02-26T14:29:05.114Z,30
2018-02-26T14:29:46.003Z,30
2018-02-26T14:30:26.672Z,30
2018-02-26T14:31:07.650Z,30
2018-02-26T14:31:49.850Z,30
2018-02-26T14:32:31.187Z,30
2018-02-26T14:33:11.962Z,30
2018-02-26T14:33:56.876Z,30
2018-02-26T14:34:38.394Z,30
2018-02-26T14:35:22.408Z,30
2018-02-26T14:36:03.164Z,30
2018-02-26T14:36:45.835Z,30
2018-02-26T14:37:25.335Z,30
2018-02-26T14:38:07.890Z,30
2018-02-26T14:38:50.538Z,30
2018-02-26T14:39:31.904Z,30
2018-02-26T14:40:12.544Z,30
2018-02-26T14:40:54.247Z,30
2018-02-26T14:41:35.318Z,40
2018-02-26T14:42:16.100Z,45
2018-02-26T14:42:57.233Z,40
2018-02-26T14:43:38.421Z,35
2018-02-26T14:44:19.024Z,35
2018-02-26T14:45:00.758Z,35
2018-02-26T14:45:41.236Z,30
2018-02-26T14:46:22.482Z,30
2018-02-26T14:47:03.061Z,30
2018-02-26T14:47:44.282Z,30
2018-02-26T14:48:25.029Z,30
2018-02-26T14:49:06.304Z,30
2018-02-26T14:49:47.488Z,35
2018-02-26T14:50:28.558Z,35
2018-02-26T14:51:09.178Z,35
2018-02-26T14:51:50.083Z,30
2018-02-26T14:52:32.468Z,30
2018-02-26T14:53:13.315Z,30
2018-02-26T14:53:58.354Z,30
2018-02-26T14:54:39.966Z,30
2018-02-26T14:55:21.651Z,30
2018-02-26T14:56:03.474Z,30
2018-02-26T14:56:44.100Z,30
2018-02-26T14:57:25.461Z,30
2018-02-26T14:58:08.365Z,30
2018-02-26T14:58:49.536Z,25
2018-02-26T14:59:31.155Z,25
2018-02-26T15:00:11.991Z,25
2018-02-26T15:00:52.481Z,25
2018-02-26T15:01:33.895Z,25
2018-02-26T15:02:14.660Z,20
2018-02-26T15:02:55.239Z,20
2018-02-26T15:03:35.653Z,20
2018-02-26T15:04:16.533Z,20
2018-02-26T15:04:57.210Z,25
2018-02-26T15:05:37.903Z,20
2018-02-26T15:06:18.370Z,20
2018-02-26T15:07:01.420Z,20
2018-02-26T15:07:43.630Z,20
2018-02-26T15:08:25.207Z,20
2018-02-26T15:09:06.726Z,20
2018-02-26T15:09:47.484Z,25
2018-02-26T15:10:30.627Z,25
2018-02-26T15:11:11.494Z,25
2018-02-26T15:11:54.355Z,25
2018-02-26T15:12:34.836Z,25
2018-02-26T15:13:15.541Z,25
2018-02-26T15:13:57.232Z,25
2018-02-26T15:14:37.237Z,25
2018-02-26T15:15:18.473Z,20
2018-02-26T15:15:59.449Z,25
2018-02-26T15:16:40.718Z,20
2018-02-26T15:17:21.627Z,20
2018-02-26T15:18:03.669Z,20
2018-02-26T15:18:53.584Z,20
2018-02-26T15:19:34.450Z,20
2018-02-26T15:20:15.540Z,20
2018-02-26T15:20:59.680Z,25
2018-02-26T15:21:41.153Z,25
2018-02-26T15:22:26.480Z,25
2018-02-26T15:23:09.202Z,35
2018-02-26T15:23:49.768Z,30
2018-02-26T15:28:42.945Z,30
2018-02-26T15:29:24.091Z,30
2018-02-26T15:30:03.809Z,35
2018-02-26T15:30:44.168Z,50
2018-02-26T15:31:26.199Z,60
2018-02-26T15:32:05.898Z,70
2018-02-26T15:32:46.470Z,80
2018-02-26T15:33:26.781Z,80
2018-02-26T15:34:07.944Z,85
2018-02-26T15:34:47.899Z,85
2018-02-26T15:35:28.348Z,80
2018-02-26T15:36:08.775Z,75
2018-02-26T15:36:49.209Z,80
2018-02-26T15:37:30.100Z,70
2018-02-26T15:38:10.509Z,55
2018-02-26T15:38:51.801Z,75
2018-02-26T15:39:32.416Z,65
2018-02-26T15:40:12.547Z,50
2018-02-26T15:40:53.434Z,55
2018-02-26T15:41:33.942Z,60
2018-02-26T15:42:14.708Z,70
2018-02-26T15:42:55.915Z,55
2018-02-26T15:43:36.084Z,35
2018-02-26T15:44:17.607Z,30
2018-02-26T15:44:58.055Z,30
2018-02-26T15:45:38.923Z,30
2018-02-26T15:46:20.039Z,25
2018-02-26T15:47:00.048Z,30
2018-02-26T15:47:41.462Z,25
2018-02-26T15:48:22.488Z,20
2018-02-26T15:49:03.037Z,20
2018-02-26T15:49:44.468Z,20
2018-02-26T15:50:25.905Z,15
2018-02-26T15:51:05.693Z,15
2018-02-26T15:51:46.685Z,15
2018-02-26T15:52:27.113Z,15
2018-02-26T15:53:07.502Z,15
2018-02-26T15:53:47.921Z,15
2018-02-26T15:54:28.422Z,15
2018-02-26T15:55:08.989Z,15
2018-02-26T15:55:49.411Z,15
2018-02-26T15:56:30.010Z,15
2018-02-26T15:57:10.483Z,15
2018-02-26T15:57:50.843Z,15
2018-02-26T15:58:31.462Z,15
2018-02-26T15:59:12.013Z,15
2018-02-26T15:59:52.637Z,15
2018-02-26T16:00:33.748Z,15
2018-02-26T16:01:14.208Z,15
2018-02-26T16:01:55.147Z,15
2018-02-26T16:02:35.687Z,15
2018-02-26T16:03:16.233Z,15
2018-02-26T16:03:56.884Z,15
2018-02-26T16:04:38.160Z,15
2018-02-26T16:05:17.974Z,15
2018-02-26T16:05:58.662Z,15
2018-02-26T16:06:39.337Z,15
2018-02-26T16:07:19.450Z,10
2018-02-26T16:07:59.901Z,10
2018-02-26T16:47:03.623Z,0
2018-02-26T16:47:43.621Z,0
2018-02-26T16:48:24.722Z,0
2018-02-26T16:49:04.991Z,0
2018-02-26T16:49:46.353Z,0
2018-02-26T16:50:26.802Z,0
2018-02-26T16:51:07.203Z,0
2018-02-26T16:51:48.177Z,0
2018-02-26T16:52:27.951Z,0
2018-02-26T16:53:08.937Z,0
2018-02-26T16:53:50.317Z,0
2018-02-26T16:54:30.454Z,0
2018-02-26T16:55:11.096Z,0
2018-02-26T16:55:51.582Z,0
2018-02-26T16:56:32.139Z,0
2018-02-26T16:57:12.475Z,0
2018-02-26T16:57:53.225Z,0
2018-02-26T16:58:33.611Z,0
2018-02-26T16:59:13.989Z,0
2018-02-26T16:59:54.499Z,0
2018-02-26T17:06:43.952Z,0
2018-02-26T17:07:24.464Z,0
2018-02-26T17:08:05.169Z,0
2018-02-26T17:08:45.529Z,0
2018-02-26T17:09:26.315Z,0
2018-02-26T17:10:07.132Z,0
2018-02-26T17:10:47.865Z,0
2018-02-26T17:13:32.226Z,0
2018-02-26T17:14:11.579Z,0
2018-02-26T17:14:52.470Z,0
2018-02-26T17:15:32.735Z,0
2018-02-26T17:16:13.124Z,0
2018-02-26T17:16:53.816Z,0
2018-02-26T17:17:34.680Z,0
2018-02-26T17:18:15.083Z,0
2018-02-26T17:18:55.507Z,0
2018-02-26T17:19:37.101Z,0
2018-02-26T17:20:17.181Z,0
2018-02-26T17:20:57.852Z,0
2018-02-26T17:21:38.323Z,0
2018-02-26T17:22:18.718Z,0
2018-02-26T17:22:59.482Z,0
2018-02-26T17:23:39.793Z,0
2018-02-26T17:24:20.248Z,0
2018-02-26T17:25:00.769Z,0
2018-02-26T17:25:41.180Z,0
2018-02-26T17:26:21.904Z,0
2018-02-26T17:27:02.542Z,0
2018-02-26T17:27:42.929Z,0
2018-02-26T17:28:23.687Z,0
2018-02-26T17:29:04.739Z,0
2018-02-26T17:29:45.562Z,0
2018-02-26T17:30:26.259Z,0
2018-02-26T17:31:08.592Z,0
2018-02-26T17:31:48.462Z,0
2018-02-26T17:32:29.341Z,0
2018-02-26T17:33:09.801Z,0
2018-02-26T17:33:50.059Z,0
2018-02-26T17:34:30.983Z,0
2018-02-26T17:35:11.129Z,0
2018-02-26T17:35:52.101Z,0
2018-02-26T17:36:33.965Z,0
2018-02-26T17:37:14.661Z,0
2018-02-26T17:37:59.164Z,0
2018-02-26T17:38:38.394Z,0
2018-02-26T17:39:18.782Z,0
2018-02-26T17:39:59.212Z,0
2018-02-26T17:40:40.089Z,0
2018-02-26T17:41:20.480Z,0
2018-02-26T17:42:00.846Z,0
2018-02-26T17:42:41.382Z,0
2018-02-26T17:43:21.842Z,0
2018-02-26T17:44:02.206Z,0
2018-02-26T17:44:43.974Z,0
2018-02-26T17:45:24.318Z,0
2018-02-26T17:46:04.800Z,0
2018-02-26T17:46:45.999Z,0
2018-02-26T17:47:26.599Z,0
2018-02-26T17:48:07.006Z,0
2018-02-26T17:48:48.114Z,0
2018-02-26T17:49:28.515Z,0
2018-02-26T17:50:09.042Z,0
2018-02-26T17:50:49.477Z,0
2018-02-26T17:51:29.957Z,0
2018-02-26T17:52:10.340Z,0
2018-02-26T17:52:51.301Z,0
2018-02-26T17:53:31.635Z,0
2018-02-26T17:54:12.002Z,0
2018-02-26T17:54:52.639Z,0
2018-02-26T17:55:33.372Z,0
2018-02-26T17:56:14.006Z,0
2018-02-26T17:56:54.346Z,0
2018-02-26T17:57:34.895Z,0
2018-02-26T17:58:15.778Z,0
2018-02-26T17:58:56.381Z,0
2018-02-26T17:59:40.881Z,0
2018-02-26T18:00:20.300Z,0
2018-02-26T18:01:00.270Z,0
2018-02-26T18:01:40.598Z,0
2018-02-26T18:02:21.124Z,0
2018-02-26T18:03:01.603Z,0
2018-02-26T18:03:42.124Z,0
2018-02-26T18:04:22.785Z,0
2018-02-26T18:05:03.175Z,0
2018-02-26T18:05:43.547Z,0
2018-02-26T18:06:25.502Z,0
2018-02-26T18:07:05.752Z,0
2018-02-26T18:07:46.184Z,0
2018-02-26T18:08:26.825Z,0
2018-02-26T18:09:07.511Z,0
2018-02-26T18:09:48.086Z,0
2018-02-26T18:10:28.632Z,0
2018-02-26T18:11:09.131Z,0
2018-02-26T18:11:49.446Z,0
2018-02-26T18:12:30.146Z,0
2018-02-26T18:13:11.106Z,0
2018-02-26T18:13:51.829Z,0
2018-02-26T18:14:32.534Z,0
2018-02-26T18:15:14.296Z,0
2018-02-26T18:15:53.666Z,0
2018-02-26T18:16:34.588Z,0
2018-02-26T18:17:15.250Z,0
2018-02-26T18:17:55.658Z,0
2018-02-26T18:18:35.953Z,0
2018-02-26T18:19:16.463Z,0
2018-02-26T18:19:56.915Z,0
2018-02-26T18:20:37.660Z,0
2018-02-26T18:21:17.790Z,0
2018-02-26T18:21:58.172Z,0
2018-02-26T18:22:38.607Z,0
2018-02-26T18:23:20.387Z,0
2018-02-26T18:23:59.866Z,0
2018-02-26T18:24:40.399Z,0
2018-02-26T18:25:20.868Z,0
2018-02-26T18:26:01.182Z,0
2018-02-26T18:26:41.694Z,0
2018-02-26T18:27:22.079Z,0
2018-02-26T18:28:02.685Z,0
2018-02-26T18:28:43.138Z,0
2018-02-26T19:07:26.956Z,0
2018-02-26T19:08:07.599Z,0
2018-02-26T19:08:48.328Z,0
2018-02-26T19:09:28.730Z,0
2018-02-26T19:10:10.071Z,0
2018-02-26T19:10:50.764Z,0
2018-02-26T19:11:32.027Z,0
2018-02-26T19:12:11.932Z,0
2018-02-26T19:12:52.510Z,0
2018-02-26T19:13:32.908Z,0
2018-02-26T19:14:13.235Z,0
2018-02-26T19:20:32.092Z,0
2018-02-26T19:21:13.452Z,0
2018-02-26T19:21:54.816Z,0
2018-02-26T19:22:36.958Z,0
2018-02-26T19:23:17.270Z,0
2018-02-26T19:23:58.526Z,0
2018-02-26T19:24:39.684Z,0
2018-02-26T19:25:21.004Z,0